sensor_id;sensor_type;location;lat;lon;timestamp;temperature;humidity
21163;DHT22;10739;52.198;20.908;2022-10-31T00:03:53;9.90;99.90
21163;DHT22;10739;52.198;20.908;2022-10-31T00:06:21;10.00;99.90
21163;DHT22;10739;52.198;20.908;2022-10-31T00:08:52;10.00;99.90
21163;DHT22;10739;52.198;20.908;2022-10-31T00:11:24;10.00;99.90
21163;DHT22;10739;52.198;20.908;2022-10-31T00:13:51;9.90;99.90
21163;DHT22;10739;52.198;20.908;2022-10-31T00:16:23;9.90;99.90
21163;DHT22;10739;52.198;20.908;2022-10-31T00:18:55;9.80;99.90
21163;DHT22;10739;52.198;20.908;2022-10-31T00:21:24;9.70;99.90
21163;DHT22;10739;52.198;20.908;2022-10-31T00:23:51;9.60;99.90
21163;DHT22;10739;52.198;20.908;2022-10-31T00:26:18;9.70;99.90
21163;DHT22;10739;52.198;20.908;2022-10-31T00:28:44;9.60;99.90
21163;DHT22;10739;52.198;20.908;2022-10-31T00:31:12;9.60;99.90
21163;DHT22;10739;52.198;20.908;2022-10-31T00:33:39;9.60;99.90
21163;DHT22;10739;52.198;20.908;2022-10-31T00:36:07;9.50;99.90
21163;DHT22;10739;52.198;20.908;2022-10-31T00:38:36;9.40;99.90
21163;DHT22;10739;52.198;20.908;2022-10-31T00:41:02;9.40;99.90
21163;DHT22;10739;52.198;20.908;2022-10-31T00:43:28;9.30;99.90
21163;DHT22;10739;52.198;20.908;2022-10-31T00:45:55;9.20;99.90
21163;DHT22;10739;52.198;20.908;2022-10-31T00:48:21;9.20;99.90
21163;DHT22;10739;52.198;20.908;2022-10-31T00:50:47;9.20;99.90
21163;DHT22;10739;52.198;20.908;2022-10-31T00:53:14;9.20;99.90
21163;DHT22;10739;52.198;20.908;2022-10-31T00:55:41;9.20;99.90
21163;DHT22;10739;52.198;20.908;2022-10-31T00:58:08;9.10;99.90
21163;DHT22;10739;52.198;20.908;2022-10-31T01:00:34;9.10;99.90
21163;DHT22;10739;52.198;20.908;2022-10-31T01:03:00;9.10;99.90
21163;DHT22;10739;52.198;20.908;2022-10-31T01:05:26;9.10;99.90
21163;DHT22;10739;52.198;20.908;2022-10-31T01:07:53;9.00;99.90
21163;DHT22;10739;52.198;20.908;2022-10-31T01:10:19;9.00;99.90
21163;DHT22;10739;52.198;20.908;2022-10-31T01:12:46;9.00;99.90
21163;DHT22;10739;52.198;20.908;2022-10-31T01:15:19;9.00;99.90
21163;DHT22;10739;52.198;20.908;2022-10-31T01:17:48;9.00;99.90
21163;DHT22;10739;52.198;20.908;2022-10-31T01:20:15;9.00;99.90
21163;DHT22;10739;52.198;20.908;2022-10-31T01:22:42;8.90;99.90
21163;DHT22;10739;52.198;20.908;2022-10-31T01:25:09;8.90;99.90
21163;DHT22;10739;52.198;20.908;2022-10-31T01:27:36;8.90;99.90
21163;DHT22;10739;52.198;20.908;2022-10-31T01:30:03;8.90;99.90
21163;DHT22;10739;52.198;20.908;2022-10-31T01:32:30;8.90;99.90
21163;DHT22;10739;52.198;20.908;2022-10-31T01:34:56;8.90;99.90
21163;DHT22;10739;52.198;20.908;2022-10-31T01:37:23;8.90;99.90
21163;DHT22;10739;52.198;20.908;2022-10-31T01:39:49;8.90;99.90
21163;DHT22;10739;52.198;20.908;2022-10-31T01:42:20;8.90;99.90
21163;DHT22;10739;52.198;20.908;2022-10-31T01:47:25;8.80;99.90
21163;DHT22;10739;52.198;20.908;2022-10-31T01:50:00;8.80;99.90
21163;DHT22;10739;52.198;20.908;2022-10-31T01:52:37;8.80;99.90
21163;DHT22;10739;52.198;20.908;2022-10-31T01:55:34;8.80;99.90
21163;DHT22;10739;52.198;20.908;2022-10-31T01:58:08;8.70;99.90
21163;DHT22;10739;52.198;20.908;2022-10-31T02:00:39;8.70;99.90
21163;DHT22;10739;52.198;20.908;2022-10-31T02:03:09;8.70;99.90
21163;DHT22;10739;52.198;20.908;2022-10-31T02:05:36;8.60;99.90
21163;DHT22;10739;52.198;20.908;2022-10-31T02:10:58;8.60;99.90
21163;DHT22;10739;52.198;20.908;2022-10-31T02:13:28;8.50;99.90
21163;DHT22;10739;52.198;20.908;2022-10-31T02:15:57;8.50;99.90
21163;DHT22;10739;52.198;20.908;2022-10-31T02:18:27;8.50;99.90
21163;DHT22;10739;52.198;20.908;2022-10-31T02:26:45;8.40;99.90
21163;DHT22;10739;52.198;20.908;2022-10-31T02:30:02;8.40;99.90
21163;DHT22;10739;52.198;20.908;2022-10-31T02:35:44;8.40;99.90
21163;DHT22;10739;52.198;20.908;2022-10-31T02:38:41;8.40;99.90
21163;DHT22;10739;52.198;20.908;2022-10-31T02:41:58;8.40;99.90
21163;DHT22;10739;52.198;20.908;2022-10-31T02:44:45;8.40;99.90
21163;DHT22;10739;52.198;20.908;2022-10-31T02:47:19;8.50;99.90
21163;DHT22;10739;52.198;20.908;2022-10-31T02:49:56;8.50;99.90
21163;DHT22;10739;52.198;20.908;2022-10-31T02:52:28;8.50;99.90
21163;DHT22;10739;52.198;20.908;2022-10-31T02:54:57;8.50;99.90
21163;DHT22;10739;52.198;20.908;2022-10-31T02:57:30;8.50;99.90
21163;DHT22;10739;52.198;20.908;2022-10-31T03:00:06;8.50;99.90
21163;DHT22;10739;52.198;20.908;2022-10-31T03:05:40;8.50;99.90
21163;DHT22;10739;52.198;20.908;2022-10-31T03:08:59;8.50;99.90
21163;DHT22;10739;52.198;20.908;2022-10-31T03:11:12;8.40;99.90
21163;DHT22;10739;52.198;20.908;2022-10-31T03:13:47;8.40;99.90
21163;DHT22;10739;52.198;20.908;2022-10-31T03:16:45;8.40;99.90
21163;DHT22;10739;52.198;20.908;2022-10-31T03:19:29;8.40;99.90
21163;DHT22;10739;52.198;20.908;2022-10-31T03:22:03;8.40;99.90
21163;DHT22;10739;52.198;20.908;2022-10-31T03:24:38;9.80;99.90
21163;DHT22;10739;52.198;20.908;2022-10-31T03:27:08;8.40;99.90
21163;DHT22;10739;52.198;20.908;2022-10-31T03:29:40;8.50;99.90
21163;DHT22;10739;52.198;20.908;2022-10-31T03:32:14;8.50;99.90
21163;DHT22;10739;52.198;20.908;2022-10-31T03:34:45;8.50;99.90
21163;DHT22;10739;52.198;20.908;2022-10-31T03:37:15;8.50;99.90
21163;DHT22;10739;52.198;20.908;2022-10-31T03:39:46;8.60;99.90
21163;DHT22;10739;52.198;20.908;2022-10-31T03:42:20;8.60;99.90
21163;DHT22;10739;52.198;20.908;2022-10-31T03:45:12;8.60;99.90
21163;DHT22;10739;52.198;20.908;2022-10-31T03:47:43;8.60;99.90
21163;DHT22;10739;52.198;20.908;2022-10-31T03:50:12;8.70;99.90
21163;DHT22;10739;52.198;20.908;2022-10-31T03:59:09;8.70;99.90
21163;DHT22;10739;52.198;20.908;2022-10-31T04:01:46;8.70;99.90
21163;DHT22;10739;52.198;20.908;2022-10-31T04:04:16;8.80;99.90
21163;DHT22;10739;52.198;20.908;2022-10-31T04:06:46;8.90;99.90
21163;DHT22;10739;52.198;20.908;2022-10-31T04:09:14;8.90;99.90
21163;DHT22;10739;52.198;20.908;2022-10-31T04:11:50;9.00;99.90
21163;DHT22;10739;52.198;20.908;2022-10-31T04:14:18;9.00;99.90
21163;DHT22;10739;52.198;20.908;2022-10-31T04:16:47;8.90;99.90
21163;DHT22;10739;52.198;20.908;2022-10-31T04:19:14;8.80;99.90
21163;DHT22;10739;52.198;20.908;2022-10-31T04:21:40;8.70;99.90
21163;DHT22;10739;52.198;20.908;2022-10-31T04:24:09;8.70;99.90
21163;DHT22;10739;52.198;20.908;2022-10-31T04:26:36;8.60;99.90
21163;DHT22;10739;52.198;20.908;2022-10-31T04:29:02;8.50;99.90
21163;DHT22;10739;52.198;20.908;2022-10-31T04:31:29;8.60;99.90
21163;DHT22;10739;52.198;20.908;2022-10-31T04:33:55;8.50;99.90
21163;DHT22;10739;52.198;20.908;2022-10-31T04:36:21;8.50;99.90
21163;DHT22;10739;52.198;20.908;2022-10-31T04:38:47;8.50;99.90
21163;DHT22;10739;52.198;20.908;2022-10-31T04:41:13;8.50;99.90
21163;DHT22;10739;52.198;20.908;2022-10-31T04:43:39;8.50;99.90
21163;DHT22;10739;52.198;20.908;2022-10-31T04:46:05;8.40;99.90
21163;DHT22;10739;52.198;20.908;2022-10-31T04:48:32;8.40;99.90
21163;DHT22;10739;52.198;20.908;2022-10-31T04:50:59;8.30;99.90
21163;DHT22;10739;52.198;20.908;2022-10-31T04:53:27;8.40;99.90
21163;DHT22;10739;52.198;20.908;2022-10-31T04:55:53;8.40;99.90
21163;DHT22;10739;52.198;20.908;2022-10-31T04:58:19;8.40;99.90
21163;DHT22;10739;52.198;20.908;2022-10-31T05:00:45;8.40;99.90
21163;DHT22;10739;52.198;20.908;2022-10-31T05:03:12;8.40;99.90
21163;DHT22;10739;52.198;20.908;2022-10-31T05:05:38;8.40;99.90
21163;DHT22;10739;52.198;20.908;2022-10-31T05:08:04;8.30;99.90
21163;DHT22;10739;52.198;20.908;2022-10-31T05:10:30;8.30;99.90
21163;DHT22;10739;52.198;20.908;2022-10-31T05:12:59;8.30;99.90
21163;DHT22;10739;52.198;20.908;2022-10-31T05:15:27;8.20;99.90
21163;DHT22;10739;52.198;20.908;2022-10-31T05:17:54;8.20;99.90
21163;DHT22;10739;52.198;20.908;2022-10-31T05:20:26;8.20;99.90
21163;DHT22;10739;52.198;20.908;2022-10-31T05:22:55;8.20;99.90
21163;DHT22;10739;52.198;20.908;2022-10-31T05:25:23;8.10;99.90
21163;DHT22;10739;52.198;20.908;2022-10-31T05:27:52;8.10;99.90
21163;DHT22;10739;52.198;20.908;2022-10-31T05:30:22;8.10;99.90
21163;DHT22;10739;52.198;20.908;2022-10-31T05:32:50;8.10;99.90
21163;DHT22;10739;52.198;20.908;2022-10-31T05:35:25;8.20;99.90
21163;DHT22;10739;52.198;20.908;2022-10-31T05:37:54;8.10;99.90
21163;DHT22;10739;52.198;20.908;2022-10-31T05:40:21;8.20;99.90
21163;DHT22;10739;52.198;20.908;2022-10-31T05:42:50;8.20;99.90
21163;DHT22;10739;52.198;20.908;2022-10-31T05:45:17;8.20;99.90
21163;DHT22;10739;52.198;20.908;2022-10-31T05:50:23;8.20;99.90
21163;DHT22;10739;52.198;20.908;2022-10-31T05:52:59;8.30;99.90
21163;DHT22;10739;52.198;20.908;2022-10-31T05:55:27;8.30;99.90
21163;DHT22;10739;52.198;20.908;2022-10-31T05:57:55;8.30;99.90
21163;DHT22;10739;52.198;20.908;2022-10-31T06:00:22;8.40;99.90
21163;DHT22;10739;52.198;20.908;2022-10-31T06:02:49;8.40;99.90
21163;DHT22;10739;52.198;20.908;2022-10-31T06:05:23;8.40;99.90
21163;DHT22;10739;52.198;20.908;2022-10-31T06:07:49;8.40;99.90
21163;DHT22;10739;52.198;20.908;2022-10-31T06:10:16;8.50;99.90
21163;DHT22;10739;52.198;20.908;2022-10-31T06:12:42;8.50;99.90
21163;DHT22;10739;52.198;20.908;2022-10-31T06:15:09;8.60;99.90
21163;DHT22;10739;52.198;20.908;2022-10-31T06:17:35;8.60;99.90
21163;DHT22;10739;52.198;20.908;2022-10-31T06:20:03;8.70;99.90
21163;DHT22;10739;52.198;20.908;2022-10-31T06:22:30;8.70;99.90
21163;DHT22;10739;52.198;20.908;2022-10-31T06:24:56;8.70;99.90
21163;DHT22;10739;52.198;20.908;2022-10-31T06:27:22;8.70;99.90
21163;DHT22;10739;52.198;20.908;2022-10-31T06:29:49;8.80;99.90
21163;DHT22;10739;52.198;20.908;2022-10-31T06:32:15;8.70;99.90
21163;DHT22;10739;52.198;20.908;2022-10-31T06:34:42;8.70;99.90
21163;DHT22;10739;52.198;20.908;2022-10-31T06:37:11;8.80;99.90
21163;DHT22;10739;52.198;20.908;2022-10-31T06:39:37;8.70;99.90
21163;DHT22;10739;52.198;20.908;2022-10-31T06:42:04;8.70;99.90
21163;DHT22;10739;52.198;20.908;2022-10-31T06:44:31;8.80;99.90
21163;DHT22;10739;52.198;20.908;2022-10-31T06:46:57;8.80;99.90
21163;DHT22;10739;52.198;20.908;2022-10-31T06:49:23;8.80;99.90
21163;DHT22;10739;52.198;20.908;2022-10-31T06:51:50;8.80;99.90
21163;DHT22;10739;52.198;20.908;2022-10-31T06:54:17;8.90;99.90
21163;DHT22;10739;52.198;20.908;2022-10-31T06:56:46;8.90;99.90
21163;DHT22;10739;52.198;20.908;2022-10-31T06:59:13;8.90;99.90
21163;DHT22;10739;52.198;20.908;2022-10-31T07:01:40;8.90;99.90
21163;DHT22;10739;52.198;20.908;2022-10-31T07:04:08;9.00;99.90
21163;DHT22;10739;52.198;20.908;2022-10-31T07:06:36;9.10;99.90
21163;DHT22;10739;52.198;20.908;2022-10-31T07:09:02;9.10;99.90
21163;DHT22;10739;52.198;20.908;2022-10-31T07:11:29;9.20;99.90
21163;DHT22;10739;52.198;20.908;2022-10-31T07:13:55;9.20;99.90
21163;DHT22;10739;52.198;20.908;2022-10-31T07:16:22;9.30;99.90
21163;DHT22;10739;52.198;20.908;2022-10-31T07:18:48;9.40;99.90
21163;DHT22;10739;52.198;20.908;2022-10-31T07:21:14;9.40;99.90
21163;DHT22;10739;52.198;20.908;2022-10-31T07:23:41;9.60;99.90
21163;DHT22;10739;52.198;20.908;2022-10-31T07:26:08;9.70;99.90
21163;DHT22;10739;52.198;20.908;2022-10-31T07:28:36;9.80;99.90
21163;DHT22;10739;52.198;20.908;2022-10-31T07:31:02;9.90;99.90
21163;DHT22;10739;52.198;20.908;2022-10-31T07:33:28;9.90;99.90
21163;DHT22;10739;52.198;20.908;2022-10-31T07:35:54;9.90;99.90
21163;DHT22;10739;52.198;20.908;2022-10-31T07:38:21;9.90;99.90
21163;DHT22;10739;52.198;20.908;2022-10-31T07:40:51;9.80;99.90
21163;DHT22;10739;52.198;20.908;2022-10-31T07:43:19;9.80;99.90
21163;DHT22;10739;52.198;20.908;2022-10-31T07:45:50;9.90;99.90
21163;DHT22;10739;52.198;20.908;2022-10-31T07:48:19;9.90;99.90
21163;DHT22;10739;52.198;20.908;2022-10-31T07:50:46;9.90;99.90
21163;DHT22;10739;52.198;20.908;2022-10-31T07:53:13;10.10;99.90
21163;DHT22;10739;52.198;20.908;2022-10-31T07:55:40;10.10;99.90
21163;DHT22;10739;52.198;20.908;2022-10-31T07:58:12;10.50;99.90
21163;DHT22;10739;52.198;20.908;2022-10-31T08:00:41;11.00;99.90
21163;DHT22;10739;52.198;20.908;2022-10-31T08:03:14;11.80;99.90
21163;DHT22;10739;52.198;20.908;2022-10-31T08:05:42;12.40;99.90
21163;DHT22;10739;52.198;20.908;2022-10-31T08:08:10;13.10;99.90
21163;DHT22;10739;52.198;20.908;2022-10-31T08:10:36;13.90;99.90
21163;DHT22;10739;52.198;20.908;2022-10-31T08:13:08;14.10;99.90
21163;DHT22;10739;52.198;20.908;2022-10-31T08:15:38;14.30;99.90
21163;DHT22;10739;52.198;20.908;2022-10-31T08:18:13;14.30;99.90
21163;DHT22;10739;52.198;20.908;2022-10-31T08:20:41;15.10;99.90
21163;DHT22;10739;52.198;20.908;2022-10-31T08:23:10;15.50;99.90
21163;DHT22;10739;52.198;20.908;2022-10-31T08:25:37;15.80;99.90
21163;DHT22;10739;52.198;20.908;2022-10-31T08:28:04;16.10;99.90
21163;DHT22;10739;52.198;20.908;2022-10-31T08:30:34;15.80;99.90
21163;DHT22;10739;52.198;20.908;2022-10-31T08:35:33;16.40;99.90
21163;DHT22;10739;52.198;20.908;2022-10-31T08:37:59;16.50;99.90
21163;DHT22;10739;52.198;20.908;2022-10-31T08:40:27;16.70;99.90
21163;DHT22;10739;52.198;20.908;2022-10-31T08:43:02;17.10;99.90
21163;DHT22;10739;52.198;20.908;2022-10-31T08:45:36;17.20;99.90
21163;DHT22;10739;52.198;20.908;2022-10-31T08:48:11;17.00;99.90
21163;DHT22;10739;52.198;20.908;2022-10-31T08:50:40;17.70;99.90
21163;DHT22;10739;52.198;20.908;2022-10-31T08:53:14;18.10;99.90
21163;DHT22;10739;52.198;20.908;2022-10-31T08:55:43;18.50;99.90
21163;DHT22;10739;52.198;20.908;2022-10-31T08:58:12;18.40;99.90
21163;DHT22;10739;52.198;20.908;2022-10-31T09:00:40;18.20;99.90
21163;DHT22;10739;52.198;20.908;2022-10-31T09:03:11;18.00;99.90
21163;DHT22;10739;52.198;20.908;2022-10-31T09:05:39;18.10;99.90
21163;DHT22;10739;52.198;20.908;2022-10-31T09:08:07;18.40;99.90
21163;DHT22;10739;52.198;20.908;2022-10-31T09:10:35;18.00;99.90
21163;DHT22;10739;52.198;20.908;2022-10-31T09:13:06;18.40;99.90
21163;DHT22;10739;52.198;20.908;2022-10-31T09:15:36;18.40;99.90
21163;DHT22;10739;52.198;20.908;2022-10-31T09:18:07;17.70;99.90
21163;DHT22;10739;52.198;20.908;2022-10-31T09:20:36;16.80;99.90
21163;DHT22;10739;52.198;20.908;2022-10-31T09:23:11;16.20;99.90
21163;DHT22;10739;52.198;20.908;2022-10-31T09:25:39;15.50;99.90
21163;DHT22;10739;52.198;20.908;2022-10-31T09:28:08;15.20;99.90
21163;DHT22;10739;52.198;20.908;2022-10-31T09:30:36;14.90;99.90
21163;DHT22;10739;52.198;20.908;2022-10-31T09:33:09;14.60;99.90
21163;DHT22;10739;52.198;20.908;2022-10-31T09:35:36;14.40;99.90
21163;DHT22;10739;52.198;20.908;2022-10-31T09:38:05;14.30;99.90
21163;DHT22;10739;52.198;20.908;2022-10-31T09:40:43;14.10;99.90
21163;DHT22;10739;52.198;20.908;2022-10-31T09:52:31;13.70;99.90
21163;DHT22;10739;52.198;20.908;2022-10-31T09:57:34;13.70;99.90
21163;DHT22;10739;52.198;20.908;2022-10-31T10:00:05;13.70;99.90
21163;DHT22;10739;52.198;20.908;2022-10-31T10:02:40;13.70;99.90
21163;DHT22;10739;52.198;20.908;2022-10-31T10:05:36;13.70;99.90
21163;DHT22;10739;52.198;20.908;2022-10-31T10:08:25;13.70;99.90
21163;DHT22;10739;52.198;20.908;2022-10-31T10:13:55;13.80;99.90
21163;DHT22;10739;52.198;20.908;2022-10-31T10:30:46;13.90;99.90
21163;DHT22;10739;52.198;20.908;2022-10-31T10:36:18;14.10;99.90
21163;DHT22;10739;52.198;20.908;2022-10-31T10:38:57;14.10;99.90
21163;DHT22;10739;52.198;20.908;2022-10-31T10:41:33;14.20;99.90
21163;DHT22;10739;52.198;20.908;2022-10-31T10:43:59;14.30;99.90
21163;DHT22;10739;52.198;20.908;2022-10-31T10:58:03;14.50;99.90
21163;DHT22;10739;52.198;20.908;2022-10-31T11:00:38;14.60;99.90
21163;DHT22;10739;52.198;20.908;2022-10-31T11:03:08;14.70;99.90
21163;DHT22;10739;52.198;20.908;2022-10-31T11:05:55;14.80;99.90
21163;DHT22;10739;52.198;20.908;2022-10-31T11:08:35;14.80;99.90
21163;DHT22;10739;52.198;20.908;2022-10-31T11:13:46;14.90;99.90
21163;DHT22;10739;52.198;20.908;2022-10-31T11:16:28;14.80;99.90
21163;DHT22;10739;52.198;20.908;2022-10-31T11:21:40;14.90;99.90
21163;DHT22;10739;52.198;20.908;2022-10-31T11:26:41;14.80;99.90
21163;DHT22;10739;52.198;20.908;2022-10-31T11:29:15;14.90;99.90
21163;DHT22;10739;52.198;20.908;2022-10-31T11:31:43;14.80;99.90
21163;DHT22;10739;52.198;20.908;2022-10-31T11:34:32;14.90;99.90
21163;DHT22;10739;52.198;20.908;2022-10-31T11:37:12;15.00;99.90
21163;DHT22;10739;52.198;20.908;2022-10-31T11:39:43;15.00;99.90
21163;DHT22;10739;52.198;20.908;2022-10-31T11:42:23;14.90;99.90
21163;DHT22;10739;52.198;20.908;2022-10-31T11:44:55;15.00;99.90
21163;DHT22;10739;52.198;20.908;2022-10-31T11:47:28;15.00;99.90
21163;DHT22;10739;52.198;20.908;2022-10-31T11:50:02;15.00;99.90
21163;DHT22;10739;52.198;20.908;2022-10-31T11:52:38;14.90;99.90
21163;DHT22;10739;52.198;20.908;2022-10-31T11:57:51;15.00;99.90
21163;DHT22;10739;52.198;20.908;2022-10-31T12:00:28;14.90;99.90
21163;DHT22;10739;52.198;20.908;2022-10-31T12:03:27;14.90;99.90
21163;DHT22;10739;52.198;20.908;2022-10-31T12:06:07;14.70;99.90
21163;DHT22;10739;52.198;20.908;2022-10-31T12:08:39;14.70;99.90
21163;DHT22;10739;52.198;20.908;2022-10-31T12:34:39;14.10;99.90
21163;DHT22;10739;52.198;20.908;2022-10-31T12:46:33;14.00;99.90
21163;DHT22;10739;52.198;20.908;2022-10-31T12:57:50;13.90;99.90
21163;DHT22;10739;52.198;20.908;2022-10-31T13:00:20;13.80;99.90
21163;DHT22;10739;52.198;20.908;2022-10-31T13:03:30;13.80;99.90
21163;DHT22;10739;52.198;20.908;2022-10-31T13:06:07;13.90;99.90
21163;DHT22;10739;52.198;20.908;2022-10-31T13:09:02;13.90;99.90
21163;DHT22;10739;52.198;20.908;2022-10-31T13:11:42;13.80;99.90
21163;DHT22;10739;52.198;20.908;2022-10-31T13:14:40;13.70;99.90
21163;DHT22;10739;52.198;20.908;2022-10-31T13:17:38;13.60;99.90
21163;DHT22;10739;52.198;20.908;2022-10-31T13:20:25;13.50;99.90
21163;DHT22;10739;52.198;20.908;2022-10-31T13:25:52;13.60;99.90
21163;DHT22;10739;52.198;20.908;2022-10-31T13:28:36;13.40;99.90
21163;DHT22;10739;52.198;20.908;2022-10-31T13:31:08;13.30;99.90
21163;DHT22;10739;52.198;20.908;2022-10-31T13:33:42;13.30;99.90
21163;DHT22;10739;52.198;20.908;2022-10-31T13:44:23;13.10;99.90
21163;DHT22;10739;52.198;20.908;2022-10-31T13:46:52;13.10;99.90
21163;DHT22;10739;52.198;20.908;2022-10-31T13:57:29;13.10;99.90
21163;DHT22;10739;52.198;20.908;2022-10-31T14:00:23;13.00;99.90
21163;DHT22;10739;52.198;20.908;2022-10-31T14:02:54;13.10;99.90
21163;DHT22;10739;52.198;20.908;2022-10-31T14:05:27;13.10;99.90
21163;DHT22;10739;52.198;20.908;2022-10-31T14:07:55;13.20;99.90
21163;DHT22;10739;52.198;20.908;2022-10-31T14:10:29;13.20;99.90
21163;DHT22;10739;52.198;20.908;2022-10-31T14:16:02;13.10;99.90
21163;DHT22;10739;52.198;20.908;2022-10-31T14:18:33;13.10;99.90
21163;DHT22;10739;52.198;20.908;2022-10-31T14:23:48;12.90;99.90
21163;DHT22;10739;52.198;20.908;2022-10-31T14:28:56;12.80;99.90
21163;DHT22;10739;52.198;20.908;2022-10-31T14:31:43;12.80;99.90
21163;DHT22;10739;52.198;20.908;2022-10-31T14:34:18;12.70;99.90
21163;DHT22;10739;52.198;20.908;2022-10-31T14:51:00;12.70;99.90
21163;DHT22;10739;52.198;20.908;2022-10-31T14:53:36;12.70;99.90
21163;DHT22;10739;52.198;20.908;2022-10-31T14:56:28;12.60;99.90
21163;DHT22;10739;52.198;20.908;2022-10-31T14:59:04;12.70;99.90
21163;DHT22;10739;52.198;20.908;2022-10-31T15:01:36;12.70;99.90
21163;DHT22;10739;52.198;20.908;2022-10-31T15:04:16;12.70;99.90
21163;DHT22;10739;52.198;20.908;2022-10-31T15:06:51;12.60;99.90
21163;DHT22;10739;52.198;20.908;2022-10-31T15:09:43;12.70;99.90
21163;DHT22;10739;52.198;20.908;2022-10-31T15:12:27;12.60;99.90
21163;DHT22;10739;52.198;20.908;2022-10-31T15:14:58;12.70;99.90
21163;DHT22;10739;52.198;20.908;2022-10-31T15:17:48;12.60;99.90
21163;DHT22;10739;52.198;20.908;2022-10-31T15:20:20;12.60;99.90
21163;DHT22;10739;52.198;20.908;2022-10-31T15:22:49;12.60;99.90
21163;DHT22;10739;52.198;20.908;2022-10-31T15:25:24;12.70;99.90
21163;DHT22;10739;52.198;20.908;2022-10-31T15:27:54;12.70;99.90
21163;DHT22;10739;52.198;20.908;2022-10-31T15:30:28;12.60;99.90
21163;DHT22;10739;52.198;20.908;2022-10-31T15:32:55;12.60;99.90
21163;DHT22;10739;52.198;20.908;2022-10-31T15:35:26;12.60;99.90
21163;DHT22;10739;52.198;20.908;2022-10-31T15:37:55;12.50;99.90
21163;DHT22;10739;52.198;20.908;2022-10-31T15:40:25;12.50;99.90
21163;DHT22;10739;52.198;20.908;2022-10-31T15:43:02;12.40;99.90
21163;DHT22;10739;52.198;20.908;2022-10-31T15:45:30;12.50;99.90
21163;DHT22;10739;52.198;20.908;2022-10-31T15:47:59;12.50;99.90
21163;DHT22;10739;52.198;20.908;2022-10-31T15:50:32;12.50;99.90
21163;DHT22;10739;52.198;20.908;2022-10-31T15:53:04;12.50;99.90
21163;DHT22;10739;52.198;20.908;2022-10-31T15:55:38;12.50;99.90
21163;DHT22;10739;52.198;20.908;2022-10-31T15:58:14;12.40;99.90
21163;DHT22;10739;52.198;20.908;2022-10-31T16:00:42;12.40;99.90
21163;DHT22;10739;52.198;20.908;2022-10-31T16:05:48;12.40;99.90
21163;DHT22;10739;52.198;20.908;2022-10-31T16:08:35;12.40;99.90
21163;DHT22;10739;52.198;20.908;2022-10-31T16:14:00;12.30;99.90
21163;DHT22;10739;52.198;20.908;2022-10-31T16:16:47;12.40;99.90
21163;DHT22;10739;52.198;20.908;2022-10-31T16:22:06;12.50;99.90
21163;DHT22;10739;52.198;20.908;2022-10-31T16:27:37;12.50;99.90
21163;DHT22;10739;52.198;20.908;2022-10-31T16:30:47;13.60;99.90
21163;DHT22;10739;52.198;20.908;2022-10-31T16:33:27;12.50;99.90
21163;DHT22;10739;52.198;20.908;2022-10-31T16:38:57;12.50;99.90
21163;DHT22;10739;52.198;20.908;2022-10-31T16:41:24;12.50;99.90
21163;DHT22;10739;52.198;20.908;2022-10-31T16:43:52;12.50;99.90
21163;DHT22;10739;52.198;20.908;2022-10-31T16:46:22;12.50;99.90
21163;DHT22;10739;52.198;20.908;2022-10-31T16:48:51;12.50;99.90
21163;DHT22;10739;52.198;20.908;2022-10-31T16:51:17;12.50;99.90
21163;DHT22;10739;52.198;20.908;2022-10-31T16:53:43;12.50;99.90
21163;DHT22;10739;52.198;20.908;2022-10-31T16:56:18;12.50;99.90
21163;DHT22;10739;52.198;20.908;2022-10-31T16:58:51;12.50;99.90
21163;DHT22;10739;52.198;20.908;2022-10-31T17:01:18;12.50;99.90
21163;DHT22;10739;52.198;20.908;2022-10-31T17:03:44;12.50;99.90
21163;DHT22;10739;52.198;20.908;2022-10-31T17:06:14;12.50;99.90
21163;DHT22;10739;52.198;20.908;2022-10-31T17:08:40;12.50;99.90
21163;DHT22;10739;52.198;20.908;2022-10-31T17:11:12;12.50;99.90
21163;DHT22;10739;52.198;20.908;2022-10-31T17:13:41;12.50;99.90
21163;DHT22;10739;52.198;20.908;2022-10-31T17:16:07;12.40;99.90
21163;DHT22;10739;52.198;20.908;2022-10-31T17:18:33;12.50;99.90
21163;DHT22;10739;52.198;20.908;2022-10-31T17:21:02;12.50;99.90
21163;DHT22;10739;52.198;20.908;2022-10-31T17:23:31;12.50;99.90
21163;DHT22;10739;52.198;20.908;2022-10-31T17:25:58;12.50;99.90
21163;DHT22;10739;52.198;20.908;2022-10-31T17:28:25;12.50;99.90
21163;DHT22;10739;52.198;20.908;2022-10-31T17:30:53;12.50;99.90
21163;DHT22;10739;52.198;20.908;2022-10-31T17:33:22;12.50;99.90
21163;DHT22;10739;52.198;20.908;2022-10-31T17:35:49;12.50;99.90
21163;DHT22;10739;52.198;20.908;2022-10-31T17:38:16;12.50;99.90
21163;DHT22;10739;52.198;20.908;2022-10-31T17:40:42;12.50;99.90
21163;DHT22;10739;52.198;20.908;2022-10-31T17:43:09;12.40;99.90
21163;DHT22;10739;52.198;20.908;2022-10-31T17:45:38;12.50;99.90
21163;DHT22;10739;52.198;20.908;2022-10-31T17:48:06;12.50;99.90
21163;DHT22;10739;52.198;20.908;2022-10-31T17:50:34;12.50;99.90
21163;DHT22;10739;52.198;20.908;2022-10-31T17:53:00;12.50;99.90
21163;DHT22;10739;52.198;20.908;2022-10-31T17:55:27;12.50;99.90
21163;DHT22;10739;52.198;20.908;2022-10-31T17:57:53;12.50;99.90
21163;DHT22;10739;52.198;20.908;2022-10-31T18:00:19;12.50;99.90
21163;DHT22;10739;52.198;20.908;2022-10-31T18:02:49;12.50;99.90
21163;DHT22;10739;52.198;20.908;2022-10-31T18:05:16;12.50;99.90
21163;DHT22;10739;52.198;20.908;2022-10-31T18:07:42;12.40;99.90
21163;DHT22;10739;52.198;20.908;2022-10-31T18:10:08;12.30;99.90
21163;DHT22;10739;52.198;20.908;2022-10-31T18:12:35;12.30;99.90
21163;DHT22;10739;52.198;20.908;2022-10-31T18:15:02;12.30;99.90
21163;DHT22;10739;52.198;20.908;2022-10-31T18:17:29;12.30;99.90
21163;DHT22;10739;52.198;20.908;2022-10-31T18:19:56;12.20;99.90
21163;DHT22;10739;52.198;20.908;2022-10-31T18:22:23;12.20;99.90
21163;DHT22;10739;52.198;20.908;2022-10-31T18:24:49;12.20;99.90
21163;DHT22;10739;52.198;20.908;2022-10-31T18:27:15;12.20;99.90
21163;DHT22;10739;52.198;20.908;2022-10-31T18:29:41;12.20;99.90
21163;DHT22;10739;52.198;20.908;2022-10-31T18:32:07;12.20;99.90
21163;DHT22;10739;52.198;20.908;2022-10-31T18:34:34;12.30;99.90
21163;DHT22;10739;52.198;20.908;2022-10-31T18:37:00;12.30;99.90
21163;DHT22;10739;52.198;20.908;2022-10-31T18:39:26;12.30;99.90
21163;DHT22;10739;52.198;20.908;2022-10-31T18:41:53;12.20;99.90
21163;DHT22;10739;52.198;20.908;2022-10-31T18:44:20;12.30;99.90
21163;DHT22;10739;52.198;20.908;2022-10-31T18:46:46;12.30;99.90
21163;DHT22;10739;52.198;20.908;2022-10-31T18:49:12;12.30;99.90
21163;DHT22;10739;52.198;20.908;2022-10-31T18:51:38;12.30;99.90